Chinook — WDG2195 — position and weather

sailwx.info

Track history (hours):
 
Tides and Currents Weather Stations Pressure Air Temp Water Temp Dewpoint Dewpoint Depression Visibility Wind Speed Wind Dir Waves Ship Positions

Chinook

Owner: Shaver Transportation Company, Portland, OR. More information available from US FCC via Universal Licensing System and Coast Guard Vessel Documentation Center.

Last reported at 2017-Oct-18 23:29 UTC. Time now 2017-Oct-18 23:46 UTC.
Position N 45°34' W 122°44'.

Length 24 m; draft 2.1 m.

Type: Tug. MMSI: 367513126.

Date/timePositionNaut miles runAvg speedWind from/ knotsBaromVisibWave heightAir tempDewpointWater temp
2017-Oct-18 23:29N 45°34' W 122°44'0 0.0
2017-Oct-18 22:59N 45°34' W 122°44'0 0.0
2017-Oct-18 22:29N 45°34' W 122°44'0 0.0
2017-Oct-18 21:56N 45°34' W 122°44'0 0.0
2017-Oct-18 21:23N 45°34' W 122°44'0 0.0
2017-Oct-18 20:59N 45°34' W 122°44'0 0.0
2017-Oct-18 20:29N 45°34' W 122°44'0 0.0
2017-Oct-18 19:59N 45°34' W 122°44'0 0.0
2017-Oct-18 19:05N 45°34' W 122°44'0 0.0
2017-Oct-18 18:50N 45°34' W 122°44'0 0.0
2017-Oct-18 18:29N 45°34' W 122°44'0 0.0
2017-Oct-18 17:59N 45°34' W 122°44'0 0.0
2017-Oct-18 17:30N 45°34' W 122°44'0 0.0
2017-Oct-18 16:53N 45°34' W 122°44'0 0.0
2017-Oct-18 16:29N 45°34' W 122°44'0 0.0
2017-Oct-18 15:50N 45°34' W 122°44'0 0.0
2017-Oct-18 15:23N 45°34' W 122°44'0 0.0
2017-Oct-18 14:56N 45°34' W 122°44'0 0.0
2017-Oct-18 14:00N 45°34' W 122°44'4 8.1
2017-Oct-18 13:30N 45°37' W 122°47'7 8.9
2017-Oct-18 12:45N 45°43' W 122°46'2 9.7
2017-Oct-18 12:30N 45°46' W 122°46'5 9.3
2017-Oct-18 12:00N 45°50' W 122°47'4 8.6
2017-Oct-18 11:30N 45°54' W 122°49'4 8.6
2017-Oct-18 11:01N 45°59' W 122°50'5 9.0
2017-Oct-18 10:30N 46°03' W 122°53'3 7.0
2017-Oct-18 10:00N 46°05' W 122°56'0 0.0
2017-Oct-18 09:27N 46°05' W 122°56'0 0.0
2017-Oct-18 08:48N 46°05' W 122°56'0 0.0
2017-Oct-18 08:15N 46°05' W 122°56'0 0.0
2017-Oct-18 08:00N 46°05' W 122°56'0 0.0
2017-Oct-18 07:24N 46°05' W 122°56'0 0.0
2017-Oct-18 06:54N 46°05' W 122°56'0 0.0
2017-Oct-18 06:30N 46°05' W 122°56'0 0.0
2017-Oct-18 05:48N 46°05' W 122°56'0 0.0
2017-Oct-18 05:30N 46°05' W 122°56'0 0.0
2017-Oct-18 04:48N 46°05' W 122°56'0 0.0
2017-Oct-18 04:24N 46°05' W 122°56'0 0.0
2017-Oct-18 04:00N 46°05' W 122°56'0 0.0
2017-Oct-18 03:30N 46°05' W 122°56'0 0.0
2017-Oct-18 03:00N 46°05' W 122°56'0 0.0
2017-Oct-18 02:30N 46°05' W 122°56'0 0.0
2017-Oct-18 02:00N 46°05' W 122°56'0 0.0
2017-Oct-18 01:24N 46°05' W 122°56'0 0.0
2017-Oct-18 00:51N 46°05' W 122°56'0 0.0
2017-Oct-18 00:27N 46°05' W 122°56'0 0.0
2017-Oct-18 00:00N 46°05' W 122°56'0 0.0
2017-Oct-17 23:24N 46°05' W 122°56'0 0.0
2017-Oct-17 22:57N 46°05' W 122°56'0 0.0
2017-Oct-17 22:27N 46°05' W 122°56'0 0.0
2017-Oct-17 22:00N 46°05' W 122°56'0 0.0
2017-Oct-17 21:30N 46°05' W 122°56'0 0.0
2017-Oct-17 21:00N 46°05' W 122°56'0 0.0
2017-Oct-17 20:24N 46°05' W 122°56'0 0.0
2017-Oct-17 20:00N 46°05' W 122°56'0 0.0
2017-Oct-17 19:24N 46°05' W 122°56'0 0.0
2017-Oct-17 19:00N 46°05' W 122°56'0 0.0
2017-Oct-17 18:30N 46°05' W 122°56'0 0.0
2017-Oct-17 18:00N 46°05' W 122°56'0 0.0
2017-Oct-17 17:21N 46°05' W 122°56'0 0.0
2017-Oct-17 16:57N 46°05' W 122°56'0 0.0
2017-Oct-17 16:12N 46°05' W 122°56'0 0.0
2017-Oct-17 15:51N 46°05' W 122°56'0 0.0
2017-Oct-17 15:09N 46°05' W 122°56'0 0.1
2017-Oct-17 14:57N 46°05' W 122°56'0 0.0
2017-Oct-17 14:30N 46°05' W 122°56'0 0.0
2017-Oct-17 13:48N 46°05' W 122°56'0 0.0
2017-Oct-17 13:24N 46°05' W 122°56'0 0.0
2017-Oct-17 13:00N 46°05' W 122°56'0 0.0
2017-Oct-17 12:27N 46°05' W 122°56'0 0.1
2017-Oct-17 12:00N 46°05' W 122°56'0 0.1
2017-Oct-17 11:30N 46°05' W 122°56'0 0.0
2017-Oct-17 10:48N 46°05' W 122°56'0 0.0
2017-Oct-17 10:18N 46°05' W 122°56'0 0.0
2017-Oct-17 10:00N 46°05' W 122°56'0 0.0
2017-Oct-17 09:27N 46°05' W 122°56'0 0.0
2017-Oct-17 09:00N 46°05' W 122°56'0 0.0
2017-Oct-17 08:27N 46°05' W 122°56'0 0.0
2017-Oct-17 08:00N 46°05' W 122°56'0 0.0
2017-Oct-17 07:30N 46°05' W 122°56'0 0.0
2017-Oct-17 07:00N 46°05' W 122°56'0 0.0
2017-Oct-17 06:30N 46°05' W 122°56'0 0.0
2017-Oct-17 05:45N 46°05' W 122°56'0 0.0
2017-Oct-17 05:30N 46°05' W 122°56'0 0.0
2017-Oct-17 05:00N 46°05' W 122°56'0 0.0
2017-Oct-17 04:30N 46°05' W 122°56'0 0.0
2017-Oct-17 03:57N 46°05' W 122°56'0 0.0
2017-Oct-17 03:30N 46°05' W 122°56'0 0.0
2017-Oct-17 02:45N 46°05' W 122°56'0 0.0
2017-Oct-17 02:30N 46°05' W 122°56'0 0.0
2017-Oct-17 01:57N 46°05' W 122°56'0 0.0
2017-Oct-17 01:24N 46°05' W 122°56'0 0.0
2017-Oct-17 01:00N 46°05' W 122°56'0 0.0
2017-Oct-17 00:30N 46°05' W 122°56'0 0.0
2017-Oct-16 23:57N 46°05' W 122°56'0 0.0
2017-Oct-16 23:30N 46°05' W 122°56'0 0.0
2017-Oct-16 22:57N 46°05' W 122°56'0 0.0
2017-Oct-16 22:27N 46°05' W 122°56'0 0.0
2017-Oct-16 21:57N 46°05' W 122°56'0 0.0
2017-Oct-16 21:27N 46°05' W 122°56'0 0.0
2017-Oct-16 21:00N 46°05' W 122°56'0 0.0
2017-Oct-16 20:27N 46°05' W 122°56'0 0.0
2017-Oct-16 19:51N 46°05' W 122°56'0 0.0
2017-Oct-16 19:30N 46°05' W 122°56'0 0.0
2017-Oct-16 18:57N 46°05' W 122°56'0 0.0
2017-Oct-16 18:30N 46°05' W 122°56'0 0.0
2017-Oct-16 18:00N 46°05' W 122°56'0 0.0
2017-Oct-16 17:24N 46°05' W 122°56'0 0.0
2017-Oct-16 16:42N 46°05' W 122°56'0 0.0
2017-Oct-16 16:21N 46°05' W 122°56'0 0.0
2017-Oct-16 15:57N 46°05' W 122°56'0 0.0
2017-Oct-16 15:27N 46°05' W 122°56'0 0.0
2017-Oct-16 14:51N 46°05' W 122°56'0 0.0
2017-Oct-16 14:21N 46°05' W 122°56'0 0.0
2017-Oct-16 13:24N 46°05' W 122°56'0 0.0
2017-Oct-16 12:42N 46°05' W 122°56'0 0.0
2017-Oct-16 12:27N 46°05' W 122°56'0 0.0
2017-Oct-16 11:57N 46°05' W 122°56'0 0.0
2017-Oct-16 11:27N 46°05' W 122°56'0 0.0
2017-Oct-16 11:00N 46°05' W 122°56'0 0.0
2017-Oct-16 10:27N 46°05' W 122°56'0 0.0
2017-Oct-16 10:00N 46°05' W 122°56'0 0.0
2017-Oct-16 09:24N 46°05' W 122°56'0 0.0
2017-Oct-16 09:00N 46°05' W 122°56'0 0.0
2017-Oct-16 08:30N 46°05' W 122°56'0 0.0
2017-Oct-16 08:00N 46°05' W 122°56'0 0.0
2017-Oct-16 06:57N 46°05' W 122°56'0 0.0
2017-Oct-16 06:30N 46°05' W 122°56'0 0.0
2017-Oct-16 06:00N 46°05' W 122°56'0 0.0
2017-Oct-16 05:30N 46°05' W 122°56'0 0.0
2017-Oct-16 05:00N 46°05' W 122°56'0 0.0
2017-Oct-16 04:30N 46°05' W 122°56'0 0.0
2017-Oct-16 04:00N 46°05' W 122°56'0 0.0
2017-Oct-16 03:27N 46°05' W 122°56'0 0.0
2017-Oct-16 02:51N 46°05' W 122°56'0 0.0
2017-Oct-16 02:24N 46°05' W 122°56'0 0.0
2017-Oct-16 01:48N 46°05' W 122°56'0 0.0
2017-Oct-16 01:30N 46°05' W 122°56'0 0.0
2017-Oct-16 00:57N 46°05' W 122°56'0 0.0
2017-Oct-16 00:30N 46°05' W 122°56'0 0.0
2017-Oct-15 23:54N 46°05' W 122°56'0 0.0
2017-Oct-15 23:30N 46°05' W 122°56'0 0.0
2017-Oct-15 22:57N 46°05' W 122°56'0 0.0
2017-Oct-15 22:24N 46°05' W 122°56'0 0.0
2017-Oct-15 21:57N 46°05' W 122°56'0 0.0
2017-Oct-15 21:27N 46°05' W 122°56'0 0.0
2017-Oct-15 21:00N 46°05' W 122°56'0 0.0
2017-Oct-15 20:27N 46°05' W 122°56'0 0.0
2017-Oct-15 19:24N 46°05' W 122°56'0 0.0
2017-Oct-15 18:57N 46°05' W 122°56'0 0.0
2017-Oct-15 18:30N 46°05' W 122°56'0 0.0
2017-Oct-15 17:57N 46°05' W 122°56'0 0.0
2017-Oct-15 17:30N 46°05' W 122°56'0 0.0
2017-Oct-15 16:54N 46°05' W 122°56'0 0.0
2017-Oct-15 16:30N 46°05' W 122°56'0 0.0
2017-Oct-15 15:57N 46°05' W 122°56'0 0.0
2017-Oct-15 15:30N 46°05' W 122°56'0 0.0
2017-Oct-15 14:57N 46°05' W 122°56'0 0.0
2017-Oct-15 13:51N 46°05' W 122°56'0 0.0
2017-Oct-15 13:30N 46°05' W 122°56'0 0.0
2017-Oct-15 13:00N 46°05' W 122°56'0 0.0
2017-Oct-15 12:27N 46°05' W 122°56'0 0.0
2017-Oct-15 12:00N 46°05' W 122°56'0 0.0
2017-Oct-15 11:30N 46°05' W 122°56'0 0.0
2017-Oct-15 10:45N 46°05' W 122°56'0 0.0
2017-Oct-15 10:30N 46°05' W 122°56'0 0.0
2017-Oct-15 10:00N 46°05' W 122°56'0 0.0
2017-Oct-15 09:30N 46°05' W 122°56'0 0.0
2017-Oct-15 08:51N 46°05' W 122°56'0 0.0
2017-Oct-15 08:30N 46°05' W 122°56'0 0.0
2017-Oct-15 08:00N 46°05' W 122°56'0 0.0
2017-Oct-15 07:30N 46°05' W 122°56'0 0.0
2017-Oct-15 07:00N 46°05' W 122°56'0 0.0
2017-Oct-15 06:30N 46°05' W 122°56'0 0.0
2017-Oct-15 06:00N 46°05' W 122°56'0 0.0
2017-Oct-15 05:30N 46°05' W 122°56'0 0.0
2017-Oct-15 04:54N 46°05' W 122°56'0 0.0
2017-Oct-15 04:18N 46°05' W 122°56'0 0.0
2017-Oct-15 03:57N 46°05' W 122°56'0 0.0
2017-Oct-15 03:26N 46°05' W 122°56'0 0.0
2017-Oct-15 02:57N 46°05' W 122°56'0 0.0
2017-Oct-15 02:28N 46°05' W 122°56'0 0.0
2017-Oct-15 01:15N 46°05' W 122°56'0 0.0
2017-Oct-15 01:00N 46°05' W 122°56'0 0.0
2017-Oct-15 00:30N 46°05' W 122°56'0 0.0
2017-Oct-14 23:54N 46°05' W 122°56'0 0.0
2017-Oct-14 23:30N 46°05' W 122°56'0 0.0
2017-Oct-14 22:51N 46°05' W 122°56'0 0.0
2017-Oct-14 22:21N 46°05' W 122°56'0 0.0
2017-Oct-14 22:00N 46°05' W 122°56'0 0.0
2017-Oct-14 21:30N 46°05' W 122°56'0 0.0
2017-Oct-14 21:00N 46°05' W 122°56'0 0.0
2017-Oct-14 20:30N 46°05' W 122°56'0 0.0
2017-Oct-14 19:57N 46°05' W 122°56'0 0.0
2017-Oct-14 19:30N 46°05' W 122°56'0 0.0
2017-Oct-14 18:54N 46°05' W 122°56'0 0.0
2017-Oct-14 18:30N 46°05' W 122°56'0 0.0
2017-Oct-14 17:57N 46°05' W 122°56'0 0.0
2017-Oct-14 17:12N 46°05' W 122°56'0 0.0
2017-Oct-14 17:00N 46°05' W 122°56'0 0.0
2017-Oct-14 16:30N 46°05' W 122°56'0 0.0
2017-Oct-14 15:54N 46°05' W 122°56'0 0.0
2017-Oct-14 15:09N 46°05' W 122°56'0 0.0
2017-Oct-14 15:00N 46°05' W 122°56'0 0.0
2017-Oct-14 14:21N 46°05' W 122°56'0 0.0
2017-Oct-14 14:00N 46°05' W 122°56'0 0.0
2017-Oct-14 13:30N 46°05' W 122°56'0 0.0
2017-Oct-14 12:54N 46°05' W 122°56'0 0.0
2017-Oct-14 12:30N 46°05' W 122°56'0 0.0
2017-Oct-14 12:00N 46°05' W 122°56'0 0.0
2017-Oct-14 11:30N 46°05' W 122°56'0 0.0
2017-Oct-14 10:51N 46°05' W 122°56'0 0.0
2017-Oct-14 10:27N 46°05' W 122°56'0 0.0
2017-Oct-14 10:00N 46°05' W 122°56'0 0.0
2017-Oct-14 09:27N 46°05' W 122°56'0 0.0
2017-Oct-14 09:00N 46°05' W 122°56'0 0.0
2017-Oct-14 08:24N 46°05' W 122°56'0 0.0
2017-Oct-14 07:57N 46°05' W 122°56'0 0.0
2017-Oct-14 07:30N 46°05' W 122°56'0 0.0
2017-Oct-14 07:00N 46°05' W 122°56'0 0.0
2017-Oct-14 06:27N 46°05' W 122°56'0 0.0
2017-Oct-14 05:57N 46°05' W 122°56'0 0.0
2017-Oct-14 05:30N 46°05' W 122°56'0 0.0
2017-Oct-14 05:00N 46°05' W 122°56'0 0.0
2017-Oct-14 04:24N 46°05' W 122°56'0 0.0
2017-Oct-14 04:00N 46°05' W 122°56'0 0.0
2017-Oct-14 03:18N 46°05' W 122°56'0 0.0
2017-Oct-14 03:00N 46°05' W 122°56'0 0.0
2017-Oct-14 02:24N 46°05' W 122°56'0 0.0
2017-Oct-14 02:00N 46°05' W 122°56'0 0.0
2017-Oct-14 01:24N 46°05' W 122°56'0 0.0
2017-Oct-14 00:54N 46°05' W 122°56'0 0.0
2017-Oct-14 00:27N 46°05' W 122°56'0 0.0
2017-Oct-14 00:00N 46°05' W 122°56'0 0.0
2017-Oct-13 23:27N 46°05' W 122°56'0 0.0
2017-Oct-13 23:00N 46°05' W 122°56'0 0.0
2017-Oct-13 22:30N 46°05' W 122°56'0 0.0
2017-Oct-13 21:57N 46°05' W 122°56'0 0.0
2017-Oct-13 21:15N 46°05' W 122°56'0 0.0
2017-Oct-13 21:00N 46°05' W 122°56'0 0.0
2017-Oct-13 20:27N 46°05' W 122°56'0 0.0
2017-Oct-13 20:00N 46°05' W 122°56'0 0.0
2017-Oct-13 19:30N 46°05' W 122°56'0 0.0
2017-Oct-13 19:01N 46°05' W 122°56'0 0.0
2017-Oct-13 18:21N 46°05' W 122°56'0 0.0
2017-Oct-13 18:00N 46°05' W 122°56'0 0.0
2017-Oct-13 17:14N 46°05' W 122°56'0 0.0
2017-Oct-13 17:01N 46°05' W 122°56'0 0.0
2017-Oct-13 16:30N 46°05' W 122°56'0 0.0
2017-Oct-13 16:00N 46°05' W 122°56'0 0.0
2017-Oct-13 15:30N 46°05' W 122°56'0 0.0
2017-Oct-13 15:00N 46°05' W 122°56'0 0.0
2017-Oct-13 14:30N 46°05' W 122°56'0 0.0
2017-Oct-13 13:51N 46°05' W 122°56'0 0.0
2017-Oct-13 13:30N 46°05' W 122°56'0 0.0
2017-Oct-13 12:50N 46°05' W 122°56'0 0.0
2017-Oct-13 12:30N 46°05' W 122°56'0 0.0
2017-Oct-13 11:56N 46°05' W 122°56'0 0.0
2017-Oct-13 11:30N 46°05' W 122°56'0 0.0
2017-Oct-13 11:00N 46°05' W 122°56'0 0.0
2017-Oct-13 10:30N 46°05' W 122°56'0 0.0
2017-Oct-13 09:59N 46°05' W 122°56'0 0.0
2017-Oct-13 09:15N 46°05' W 122°56'0 0.0
2017-Oct-13 09:00N 46°05' W 122°56'0 0.0
2017-Oct-13 08:30N 46°05' W 122°56'0 0.0
2017-Oct-13 07:52N 46°05' W 122°56'0 0.0
2017-Oct-13 07:30N 46°05' W 122°56'0 0.0
2017-Oct-13 07:00N 46°05' W 122°56'0 0.0
2017-Oct-13 06:30N 46°05' W 122°56'0 0.0
2017-Oct-13 05:55N 46°05' W 122°56'0 0.0
2017-Oct-13 05:30N 46°05' W 122°56'0 0.0
2017-Oct-13 05:00N 46°05' W 122°56'0 0.0
2017-Oct-13 04:30N 46°05' W 122°56'0 0.0
2017-Oct-13 04:00N 46°05' W 122°56'0 0.0
2017-Oct-13 03:30N 46°05' W 122°56'0 0.0
2017-Oct-13 03:00N 46°05' W 122°56'0 0.0
2017-Oct-13 02:21N 46°05' W 122°56'0 0.0
2017-Oct-13 02:00N 46°05' W 122°56'0 0.0
2017-Oct-13 01:30N 46°05' W 122°56'0 0.0
2017-Oct-13 01:00N 46°05' W 122°56'0 0.0
2017-Oct-13 00:30N 46°05' W 122°56'0 0.0
2017-Oct-13 00:00N 46°05' W 122°56'0 0.0
2017-Oct-12 23:30N 46°05' W 122°56'0 0.0
2017-Oct-12 23:00N 46°05' W 122°56'0 0.0
2017-Oct-12 22:30N 46°05' W 122°56'0 0.0
2017-Oct-12 22:00N 46°05' W 122°56'0 0.0
2017-Oct-12 21:30N 46°05' W 122°56'0 0.0
2017-Oct-12 21:00N 46°05' W 122°56'0 0.0
2017-Oct-12 20:30N 46°05' W 122°56'0 0.0
2017-Oct-12 20:00N 46°05' W 122°56'0 0.0
2017-Oct-12 19:30N 46°05' W 122°56'0 0.0
2017-Oct-12 19:00N 46°05' W 122°56'0 0.0
2017-Oct-12 18:30N 46°05' W 122°56'0 0.0
2017-Oct-12 18:00N 46°05' W 122°56'0 0.0
2017-Oct-12 17:30N 46°05' W 122°56'0 0.0
2017-Oct-12 16:56N 46°05' W 122°56'0 0.0
2017-Oct-12 16:30N 46°05' W 122°56'0 0.0
2017-Oct-12 16:00N 46°05' W 122°56'0 0.0
2017-Oct-12 15:30N 46°05' W 122°56'0 0.0
2017-Oct-12 15:00N 46°05' W 122°56'0 0.0
2017-Oct-12 14:30N 46°05' W 122°56'0 0.0
2017-Oct-12 13:52N 46°05' W 122°56'0 0.0
2017-Oct-12 13:30N 46°05' W 122°56'0 0.0
2017-Oct-12 12:55N 46°05' W 122°56'0 0.0
2017-Oct-12 12:30N 46°05' W 122°56'0 0.0
2017-Oct-12 11:53N 46°05' W 122°56'0 0.0
2017-Oct-12 11:30N 46°05' W 122°56'0 0.0
2017-Oct-12 10:57N 46°05' W 122°56'0 0.0
2017-Oct-12 10:30N 46°05' W 122°56'0 0.0
2017-Oct-12 09:51N 46°05' W 122°56'0 0.0
2017-Oct-12 09:30N 46°05' W 122°56'0 0.0
2017-Oct-12 08:56N 46°05' W 122°56'0 0.0
2017-Oct-12 08:30N 46°05' W 122°56'0 0.0
2017-Oct-12 07:43N 46°05' W 122°56'0 0.0
2017-Oct-12 07:30N 46°05' W 122°56'0 0.0
2017-Oct-12 07:00N 46°05' W 122°56'0 0.0
2017-Oct-12 06:30N 46°05' W 122°56'0 0.0
2017-Oct-12 06:00N 46°05' W 122°56'0 0.0
2017-Oct-12 05:26N 46°05' W 122°56'0 0.0
2017-Oct-12 05:00N 46°05' W 122°56'0 0.0
2017-Oct-12 04:30N 46°05' W 122°56'0 0.0
2017-Oct-12 04:00N 46°05' W 122°56'0 0.0
2017-Oct-12 03:30N 46°05' W 122°56'0 0.0
2017-Oct-12 03:00N 46°05' W 122°56'0 0.0
2017-Oct-12 02:30N 46°05' W 122°56'0 0.0
2017-Oct-12 02:00N 46°05' W 122°56'0 0.0
2017-Oct-12 01:30N 46°05' W 122°56'0 0.0
2017-Oct-12 01:00N 46°05' W 122°56'0 0.0
2017-Oct-12 00:08N 46°05' W 122°56'0 0.0
2017-Oct-11 23:50N 46°05' W 122°56'0 0.0
2017-Oct-11 23:30N 46°05' W 122°56'0 0.0
2017-Oct-11 23:00N 46°05' W 122°56'0 0.0
2017-Oct-11 22:18N 46°05' W 122°56'0 0.0
2017-Oct-11 21:57N 46°05' W 122°56'0 0.0
2017-Oct-11 21:30N 46°05' W 122°56'0 0.0
2017-Oct-11 21:00N 46°05' W 122°56'0 0.0
2017-Oct-11 20:30N 46°05' W 122°56'0 0.0
2017-Oct-11 20:00N 46°05' W 122°56'0 0.0
2017-Oct-11 19:30N 46°05' W 122°56'0 0.0
2017-Oct-11 19:00N 46°05' W 122°56'0 0.0
2017-Oct-11 18:30N 46°05' W 122°56'0 0.0
2017-Oct-11 18:00N 46°05' W 122°56'0 0.0
2017-Oct-11 17:30N 46°05' W 122°56'0 0.0
2017-Oct-11 17:00N 46°05' W 122°56'4 0.2
2017-Oct-11 00:00N 46°03' W 122°53'1 2.0
2017-Oct-10 23:30N 46°03' W 122°53'3 5.4
2017-Oct-10 23:00N 46°05' W 122°56'0 0.0
2017-Oct-10 22:30N 46°05' W 122°56'0 0.0
2017-Oct-10 22:00N 46°05' W 122°56'0 0.0
2017-Oct-10 21:30N 46°05' W 122°56'0 0.0
2017-Oct-10 21:00N 46°05' W 122°56'0 0.0
2017-Oct-10 20:30N 46°05' W 122°56'0 0.0
2017-Oct-10 20:01N 46°05' W 122°56'0 0.0
2017-Oct-10 19:30N 46°05' W 122°56'0 0.0
2017-Oct-10 19:00N 46°05' W 122°56'0 0.0
2017-Oct-10 18:30N 46°05' W 122°56'0 0.0
2017-Oct-10 18:00N 46°05' W 122°56'0 0.0
2017-Oct-10 17:30N 46°05' W 122°56'0 0.0
2017-Oct-10 17:00N 46°05' W 122°56'0 0.0
2017-Oct-10 16:30N 46°05' W 122°56'0 0.0
2017-Oct-10 16:00N 46°05' W 122°56'0 0.0
2017-Oct-10 15:26N 46°05' W 122°56'0 0.0
2017-Oct-10 15:00N 46°05' W 122°56'0 0.0
2017-Oct-10 14:00N 46°05' W 122°56'0 0.0
2017-Oct-10 13:30N 46°05' W 122°56'0 0.0
2017-Oct-10 13:00N 46°05' W 122°56'0 0.0
2017-Oct-10 12:15N 46°05' W 122°56'0 0.0
2017-Oct-10 12:00N 46°05' W 122°56'0 0.0
2017-Oct-10 11:30N 46°05' W 122°56'0 0.0
2017-Oct-10 11:00N 46°05' W 122°56'0 0.0
2017-Oct-10 10:30N 46°05' W 122°56'0 0.0
2017-Oct-10 10:00N 46°05' W 122°56'0 0.0
2017-Oct-10 09:17N 46°05' W 122°56'0 0.0
2017-Oct-10 08:51N 46°05' W 122°56'0 0.0
2017-Oct-10 08:30N 46°05' W 122°56'0 0.0
2017-Oct-10 08:00N 46°05' W 122°56'0 0.0
2017-Oct-10 07:31N 46°05' W 122°56'0 0.0
2017-Oct-10 07:00N 46°05' W 122°56'0 0.0
2017-Oct-10 06:30N 46°05' W 122°56'0 0.0
2017-Oct-10 05:56N 46°05' W 122°56'0 0.0
2017-Oct-10 05:31N 46°05' W 122°56'0 0.0
2017-Oct-10 05:00N 46°05' W 122°56'0 0.0
2017-Oct-10 04:30N 46°05' W 122°56'0 0.0
2017-Oct-10 03:51N 46°05' W 122°56'0 0.0
2017-Oct-10 03:30N 46°05' W 122°56'0 0.0
2017-Oct-10 02:56N 46°05' W 122°56'0 0.0
2017-Oct-10 02:28N 46°05' W 122°56'0 0.0
2017-Oct-10 02:00N 46°05' W 122°56'0 0.0
2017-Oct-10 01:11N 46°05' W 122°56'0 0.0
2017-Oct-10 01:00N 46°05' W 122°56'0 0.0
2017-Oct-10 00:30N 46°05' W 122°56'0 0.0
2017-Oct-10 00:00N 46°05' W 122°56'0 0.0
2017-Oct-09 23:30N 46°05' W 122°56'0 0.0
2017-Oct-09 23:00N 46°05' W 122°56'0 0.0
2017-Oct-09 22:30N 46°05' W 122°56'0 0.0
2017-Oct-09 22:00N 46°05' W 122°56'0 0.0
2017-Oct-09 21:30N 46°05' W 122°56'0 0.0
2017-Oct-09 21:00N 46°05' W 122°56'0 0.0
2017-Oct-09 20:30N 46°05' W 122°56'0 0.0
2017-Oct-09 20:00N 46°05' W 122°56'0 0.0
2017-Oct-09 19:30N 46°05' W 122°56'0 0.0
2017-Oct-09 19:00N 46°05' W 122°56'0 0.0
2017-Oct-09 18:30N 46°05' W 122°56'0 0.0
2017-Oct-09 18:00N 46°05' W 122°56'0 0.0
2017-Oct-09 17:30N 46°05' W 122°56'0 0.0
2017-Oct-09 17:00N 46°05' W 122°56'0 0.0
2017-Oct-09 16:30N 46°05' W 122°56'0 0.0
2017-Oct-09 16:00N 46°05' W 122°56'0 0.0
2017-Oct-09 15:30N 46°05' W 122°56'0 0.0
2017-Oct-09 15:00N 46°05' W 122°56'0 0.0
2017-Oct-09 14:30N 46°05' W 122°56'0 0.0
2017-Oct-09 14:00N 46°05' W 122°56'0 0.0
2017-Oct-09 13:30N 46°05' W 122°56'0 0.0
2017-Oct-09 13:00N 46°05' W 122°56'0 0.0
2017-Oct-09 12:30N 46°05' W 122°56'0 0.0
2017-Oct-09 12:00N 46°05' W 122°56'0 0.0
2017-Oct-09 11:30N 46°05' W 122°56'0 0.0
2017-Oct-09 10:59N 46°05' W 122°56'0 0.0
2017-Oct-09 10:13N 46°05' W 122°56'0 0.0
2017-Oct-09 10:00N 46°05' W 122°56'0 0.0
2017-Oct-09 09:30N 46°05' W 122°56'0 0.0
2017-Oct-09 09:00N 46°05' W 122°56'1 1.2
2017-Oct-09 08:30N 46°06' W 122°57'1 1.9
2017-Oct-09 08:00N 46°06' W 122°58'2 3.1
2017-Oct-09 07:30N 46°05' W 122°56'0 0.0
2017-Oct-09 07:00N 46°05' W 122°56'0 0.0
2017-Oct-09 06:30N 46°05' W 122°56'0 0.0
2017-Oct-09 06:00N 46°05' W 122°56'0 0.0
2017-Oct-09 05:30N 46°05' W 122°56'0 0.0
2017-Oct-09 05:00N 46°05' W 122°56'0 0.0
2017-Oct-09 04:30N 46°05' W 122°56'0 0.0
2017-Oct-09 04:00N 46°05' W 122°56'0 0.0
2017-Oct-09 03:30N 46°05' W 122°56'0 0.0
2017-Oct-09 03:00N 46°05' W 122°56'0 0.0
2017-Oct-09 02:30N 46°05' W 122°56'0 0.0
2017-Oct-09 02:00N 46°05' W 122°56'0 0.0
2017-Oct-09 01:30N 46°05' W 122°56'0 0.0
2017-Oct-09 00:49N 46°05' W 122°56'0 0.0
2017-Oct-09 00:30N 46°05' W 122°56'0 0.0
2017-Oct-09 00:00N 46°05' W 122°56'0 0.0
2017-Oct-08 23:30N 46°05' W 122°56'  
Track history (hours):
 
Tides and Currents Weather Stations Pressure Air Temp Water Temp Dewpoint Dewpoint Depression Visibility Wind Speed Wind Dir Waves Ship Positions

Chinook

Owner: Shaver Transportation Company, Portland, OR. More information available from US FCC via Universal Licensing System and Coast Guard Vessel Documentation Center.

Last reported at 2017-Oct-18 23:29 UTC. Time now 2017-Oct-18 23:46 UTC.
Position N 45°34' W 122°44'.

Length 24 m; draft 2.1 m.

Type: Tug. MMSI: 367513126.

Date/timePositionNaut miles runAvg speedWind from/ knotsBaromVisibWave heightAir tempDewpointWater temp
2017-Oct-18 23:29N 45°34' W 122°44'0 0.0
2017-Oct-18 22:59N 45°34' W 122°44'0 0.0
2017-Oct-18 22:29N 45°34' W 122°44'0 0.0
2017-Oct-18 21:56N 45°34' W 122°44'0 0.0
2017-Oct-18 21:23N 45°34' W 122°44'0 0.0
2017-Oct-18 20:59N 45°34' W 122°44'0 0.0
2017-Oct-18 20:29N 45°34' W 122°44'0 0.0
2017-Oct-18 19:59N 45°34' W 122°44'0 0.0
2017-Oct-18 19:05N 45°34' W 122°44'0 0.0
2017-Oct-18 18:50N 45°34' W 122°44'0 0.0
2017-Oct-18 18:29N 45°34' W 122°44'0 0.0
2017-Oct-18 17:59N 45°34' W 122°44'0 0.0
2017-Oct-18 17:30N 45°34' W 122°44'0 0.0
2017-Oct-18 16:53N 45°34' W 122°44'0 0.0
2017-Oct-18 16:29N 45°34' W 122°44'0 0.0
2017-Oct-18 15:50N 45°34' W 122°44'0 0.0
2017-Oct-18 15:23N 45°34' W 122°44'0 0.0
2017-Oct-18 14:56N 45°34' W 122°44'0 0.0
2017-Oct-18 14:00N 45°34' W 122°44'4 8.1
2017-Oct-18 13:30N 45°37' W 122°47'7 8.9
2017-Oct-18 12:45N 45°43' W 122°46'2 9.7
2017-Oct-18 12:30N 45°46' W 122°46'5 9.3
2017-Oct-18 12:00N 45°50' W 122°47'4 8.6
2017-Oct-18 11:30N 45°54' W 122°49'4 8.6
2017-Oct-18 11:01N 45°59' W 122°50'5 9.0
2017-Oct-18 10:30N 46°03' W 122°53'3 7.0
2017-Oct-18 10:00N 46°05' W 122°56'0 0.0
2017-Oct-18 09:27N 46°05' W 122°56'0 0.0
2017-Oct-18 08:48N 46°05' W 122°56'0 0.0
2017-Oct-18 08:15N 46°05' W 122°56'0 0.0
2017-Oct-18 08:00N 46°05' W 122°56'0 0.0
2017-Oct-18 07:24N 46°05' W 122°56'0 0.0
2017-Oct-18 06:54N 46°05' W 122°56'0 0.0
2017-Oct-18 06:30N 46°05' W 122°56'0 0.0
2017-Oct-18 05:48N 46°05' W 122°56'0 0.0
2017-Oct-18 05:30N 46°05' W 122°56'0 0.0
2017-Oct-18 04:48N 46°05' W 122°56'0 0.0
2017-Oct-18 04:24N 46°05' W 122°56'0 0.0
2017-Oct-18 04:00N 46°05' W 122°56'0 0.0
2017-Oct-18 03:30N 46°05' W 122°56'0 0.0
2017-Oct-18 03:00N 46°05' W 122°56'0 0.0
2017-Oct-18 02:30N 46°05' W 122°56'0 0.0
2017-Oct-18 02:00N 46°05' W 122°56'0 0.0
2017-Oct-18 01:24N 46°05' W 122°56'0 0.0
2017-Oct-18 00:51N 46°05' W 122°56'0 0.0
2017-Oct-18 00:27N 46°05' W 122°56'0 0.0
2017-Oct-18 00:00N 46°05' W 122°56'0 0.0
2017-Oct-17 23:24N 46°05' W 122°56'0 0.0
2017-Oct-17 22:57N 46°05' W 122°56'0 0.0
2017-Oct-17 22:27N 46°05' W 122°56'0 0.0
2017-Oct-17 22:00N 46°05' W 122°56'0 0.0
2017-Oct-17 21:30N 46°05' W 122°56'0 0.0
2017-Oct-17 21:00N 46°05' W 122°56'0 0.0
2017-Oct-17 20:24N 46°05' W 122°56'0 0.0
2017-Oct-17 20:00N 46°05' W 122°56'0 0.0
2017-Oct-17 19:24N 46°05' W 122°56'0 0.0
2017-Oct-17 19:00N 46°05' W 122°56'0 0.0
2017-Oct-17 18:30N 46°05' W 122°56'0 0.0
2017-Oct-17 18:00N 46°05' W 122°56'0 0.0
2017-Oct-17 17:21N 46°05' W 122°56'0 0.0
2017-Oct-17 16:57N 46°05' W 122°56'0 0.0
2017-Oct-17 16:12N 46°05' W 122°56'0 0.0
2017-Oct-17 15:51N 46°05' W 122°56'0 0.0
2017-Oct-17 15:09N 46°05' W 122°56'0 0.1
2017-Oct-17 14:57N 46°05' W 122°56'0 0.0
2017-Oct-17 14:30N 46°05' W 122°56'0 0.0
2017-Oct-17 13:48N 46°05' W 122°56'0 0.0
2017-Oct-17 13:24N 46°05' W 122°56'0 0.0
2017-Oct-17 13:00N 46°05' W 122°56'0 0.0
2017-Oct-17 12:27N 46°05' W 122°56'0 0.1
2017-Oct-17 12:00N 46°05' W 122°56'0 0.1
2017-Oct-17 11:30N 46°05' W 122°56'0 0.0
2017-Oct-17 10:48N 46°05' W 122°56'0 0.0
2017-Oct-17 10:18N 46°05' W 122°56'0 0.0
2017-Oct-17 10:00N 46°05' W 122°56'0 0.0
2017-Oct-17 09:27N 46°05' W 122°56'0 0.0
2017-Oct-17 09:00N 46°05' W 122°56'0 0.0
2017-Oct-17 08:27N 46°05' W 122°56'0 0.0
2017-Oct-17 08:00N 46°05' W 122°56'0 0.0
2017-Oct-17 07:30N 46°05' W 122°56'0 0.0
2017-Oct-17 07:00N 46°05' W 122°56'0 0.0
2017-Oct-17 06:30N 46°05' W 122°56'0 0.0
2017-Oct-17 05:45N 46°05' W 122°56'0 0.0
2017-Oct-17 05:30N 46°05' W 122°56'0 0.0
2017-Oct-17 05:00N 46°05' W 122°56'0 0.0
2017-Oct-17 04:30N 46°05' W 122°56'0 0.0
2017-Oct-17 03:57N 46°05' W 122°56'0 0.0
2017-Oct-17 03:30N 46°05' W 122°56'0 0.0
2017-Oct-17 02:45N 46°05' W 122°56'0 0.0
2017-Oct-17 02:30N 46°05' W 122°56'0 0.0
2017-Oct-17 01:57N 46°05' W 122°56'0 0.0
2017-Oct-17 01:24N 46°05' W 122°56'0 0.0
2017-Oct-17 01:00N 46°05' W 122°56'0 0.0
2017-Oct-17 00:30N 46°05' W 122°56'0 0.0
2017-Oct-16 23:57N 46°05' W 122°56'0 0.0
2017-Oct-16 23:30N 46°05' W 122°56'0 0.0
2017-Oct-16 22:57N 46°05' W 122°56'0 0.0
2017-Oct-16 22:27N 46°05' W 122°56'0 0.0
2017-Oct-16 21:57N 46°05' W 122°56'0 0.0
2017-Oct-16 21:27N 46°05' W 122°56'0 0.0
2017-Oct-16 21:00N 46°05' W 122°56'0 0.0
2017-Oct-16 20:27N 46°05' W 122°56'0 0.0
2017-Oct-16 19:51N 46°05' W 122°56'0 0.0
2017-Oct-16 19:30N 46°05' W 122°56'0 0.0
2017-Oct-16 18:57N 46°05' W 122°56'0 0.0
2017-Oct-16 18:30N 46°05' W 122°56'0 0.0
2017-Oct-16 18:00N 46°05' W 122°56'0 0.0
2017-Oct-16 17:24N 46°05' W 122°56'0 0.0
2017-Oct-16 16:42N 46°05' W 122°56'0 0.0
2017-Oct-16 16:21N 46°05' W 122°56'0 0.0
2017-Oct-16 15:57N 46°05' W 122°56'0 0.0
2017-Oct-16 15:27N 46°05' W 122°56'0 0.0
2017-Oct-16 14:51N 46°05' W 122°56'0 0.0
2017-Oct-16 14:21N 46°05' W 122°56'0 0.0
2017-Oct-16 13:24N 46°05' W 122°56'0 0.0
2017-Oct-16 12:42N 46°05' W 122°56'0 0.0
2017-Oct-16 12:27N 46°05' W 122°56'0 0.0
2017-Oct-16 11:57N 46°05' W 122°56'0 0.0
2017-Oct-16 11:27N 46°05' W 122°56'0 0.0
2017-Oct-16 11:00N 46°05' W 122°56'0 0.0
2017-Oct-16 10:27N 46°05' W 122°56'0 0.0
2017-Oct-16 10:00N 46°05' W 122°56'0 0.0
2017-Oct-16 09:24N 46°05' W 122°56'0 0.0
2017-Oct-16 09:00N 46°05' W 122°56'0 0.0
2017-Oct-16 08:30N 46°05' W 122°56'0 0.0
2017-Oct-16 08:00N 46°05' W 122°56'0 0.0
2017-Oct-16 06:57N 46°05' W 122°56'0 0.0
2017-Oct-16 06:30N 46°05' W 122°56'0 0.0
2017-Oct-16 06:00N 46°05' W 122°56'0 0.0
2017-Oct-16 05:30N 46°05' W 122°56'0 0.0
2017-Oct-16 05:00N 46°05' W 122°56'0 0.0
2017-Oct-16 04:30N 46°05' W 122°56'0 0.0
2017-Oct-16 04:00N 46°05' W 122°56'0 0.0
2017-Oct-16 03:27N 46°05' W 122°56'0 0.0
2017-Oct-16 02:51N 46°05' W 122°56'0 0.0
2017-Oct-16 02:24N 46°05' W 122°56'0 0.0
2017-Oct-16 01:48N 46°05' W 122°56'0 0.0
2017-Oct-16 01:30N 46°05' W 122°56'0 0.0
2017-Oct-16 00:57N 46°05' W 122°56'0 0.0
2017-Oct-16 00:30N 46°05' W 122°56'0 0.0
2017-Oct-15 23:54N 46°05' W 122°56'0 0.0
2017-Oct-15 23:30N 46°05' W 122°56'0 0.0
2017-Oct-15 22:57N 46°05' W 122°56'0 0.0
2017-Oct-15 22:24N 46°05' W 122°56'0 0.0
2017-Oct-15 21:57N 46°05' W 122°56'0 0.0
2017-Oct-15 21:27N 46°05' W 122°56'0 0.0
2017-Oct-15 21:00N 46°05' W 122°56'0 0.0
2017-Oct-15 20:27N 46°05' W 122°56'0 0.0
2017-Oct-15 19:24N 46°05' W 122°56'0 0.0
2017-Oct-15 18:57N 46°05' W 122°56'0 0.0
2017-Oct-15 18:30N 46°05' W 122°56'0 0.0
2017-Oct-15 17:57N 46°05' W 122°56'0 0.0
2017-Oct-15 17:30N 46°05' W 122°56'0 0.0
2017-Oct-15 16:54N 46°05' W 122°56'0 0.0
2017-Oct-15 16:30N 46°05' W 122°56'0 0.0
2017-Oct-15 15:57N 46°05' W 122°56'0 0.0
2017-Oct-15 15:30N 46°05' W 122°56'0 0.0
2017-Oct-15 14:57N 46°05' W 122°56'0 0.0
2017-Oct-15 13:51N 46°05' W 122°56'0 0.0
2017-Oct-15 13:30N 46°05' W 122°56'0 0.0
2017-Oct-15 13:00N 46°05' W 122°56'0 0.0
2017-Oct-15 12:27N 46°05' W 122°56'0 0.0
2017-Oct-15 12:00N 46°05' W 122°56'0 0.0
2017-Oct-15 11:30N 46°05' W 122°56'0 0.0
2017-Oct-15 10:45N 46°05' W 122°56'0 0.0
2017-Oct-15 10:30N 46°05' W 122°56'0 0.0
2017-Oct-15 10:00N 46°05' W 122°56'0 0.0
2017-Oct-15 09:30N 46°05' W 122°56'0 0.0
2017-Oct-15 08:51N 46°05' W 122°56'0 0.0
2017-Oct-15 08:30N 46°05' W 122°56'0 0.0
2017-Oct-15 08:00N 46°05' W 122°56'0 0.0
2017-Oct-15 07:30N 46°05' W 122°56'0 0.0
2017-Oct-15 07:00N 46°05' W 122°56'0 0.0
2017-Oct-15 06:30N 46°05' W 122°56'0 0.0
2017-Oct-15 06:00N 46°05' W 122°56'0 0.0
2017-Oct-15 05:30N 46°05' W 122°56'0 0.0
2017-Oct-15 04:54N 46°05' W 122°56'0 0.0
2017-Oct-15 04:18N 46°05' W 122°56'0 0.0
2017-Oct-15 03:57N 46°05' W 122°56'0 0.0
2017-Oct-15 03:26N 46°05' W 122°56'0 0.0
2017-Oct-15 02:57N 46°05' W 122°56'0 0.0
2017-Oct-15 02:28N 46°05' W 122°56'0 0.0
2017-Oct-15 01:15N 46°05' W 122°56'0 0.0
2017-Oct-15 01:00N 46°05' W 122°56'0 0.0
2017-Oct-15 00:30N 46°05' W 122°56'0 0.0
2017-Oct-14 23:54N 46°05' W 122°56'0 0.0
2017-Oct-14 23:30N 46°05' W 122°56'0 0.0
2017-Oct-14 22:51N 46°05' W 122°56'0 0.0
2017-Oct-14 22:21N 46°05' W 122°56'0 0.0
2017-Oct-14 22:00N 46°05' W 122°56'0 0.0
2017-Oct-14 21:30N 46°05' W 122°56'0 0.0
2017-Oct-14 21:00N 46°05' W 122°56'0 0.0
2017-Oct-14 20:30N 46°05' W 122°56'0 0.0
2017-Oct-14 19:57N 46°05' W 122°56'0 0.0
2017-Oct-14 19:30N 46°05' W 122°56'0 0.0
2017-Oct-14 18:54N 46°05' W 122°56'0 0.0
2017-Oct-14 18:30N 46°05' W 122°56'0 0.0
2017-Oct-14 17:57N 46°05' W 122°56'0 0.0
2017-Oct-14 17:12N 46°05' W 122°56'0 0.0
2017-Oct-14 17:00N 46°05' W 122°56'0 0.0
2017-Oct-14 16:30N 46°05' W 122°56'0 0.0
2017-Oct-14 15:54N 46°05' W 122°56'0 0.0
2017-Oct-14 15:09N 46°05' W 122°56'0 0.0
2017-Oct-14 15:00N 46°05' W 122°56'0 0.0
2017-Oct-14 14:21N 46°05' W 122°56'0 0.0
2017-Oct-14 14:00N 46°05' W 122°56'0 0.0
2017-Oct-14 13:30N 46°05' W 122°56'0 0.0
2017-Oct-14 12:54N 46°05' W 122°56'0 0.0
2017-Oct-14 12:30N 46°05' W 122°56'0 0.0
2017-Oct-14 12:00N 46°05' W 122°56'0 0.0
2017-Oct-14 11:30N 46°05' W 122°56'0 0.0
2017-Oct-14 10:51N 46°05' W 122°56'0 0.0
2017-Oct-14 10:27N 46°05' W 122°56'0 0.0
2017-Oct-14 10:00N 46°05' W 122°56'0 0.0
2017-Oct-14 09:27N 46°05' W 122°56'0 0.0
2017-Oct-14 09:00N 46°05' W 122°56'0 0.0
2017-Oct-14 08:24N 46°05' W 122°56'0 0.0
2017-Oct-14 07:57N 46°05' W 122°56'0 0.0
2017-Oct-14 07:30N 46°05' W 122°56'0 0.0
2017-Oct-14 07:00N 46°05' W 122°56'0 0.0
2017-Oct-14 06:27N 46°05' W 122°56'0 0.0
2017-Oct-14 05:57N 46°05' W 122°56'0 0.0
2017-Oct-14 05:30N 46°05' W 122°56'0 0.0
2017-Oct-14 05:00N 46°05' W 122°56'0 0.0
2017-Oct-14 04:24N 46°05' W 122°56'0 0.0
2017-Oct-14 04:00N 46°05' W 122°56'0 0.0
2017-Oct-14 03:18N 46°05' W 122°56'0 0.0
2017-Oct-14 03:00N 46°05' W 122°56'0 0.0
2017-Oct-14 02:24N 46°05' W 122°56'0 0.0
2017-Oct-14 02:00N 46°05' W 122°56'0 0.0
2017-Oct-14 01:24N 46°05' W 122°56'0 0.0
2017-Oct-14 00:54N 46°05' W 122°56'0 0.0
2017-Oct-14 00:27N 46°05' W 122°56'0 0.0
2017-Oct-14 00:00N 46°05' W 122°56'0 0.0
2017-Oct-13 23:27N 46°05' W 122°56'0 0.0
2017-Oct-13 23:00N 46°05' W 122°56'0 0.0
2017-Oct-13 22:30N 46°05' W 122°56'0 0.0
2017-Oct-13 21:57N 46°05' W 122°56'0 0.0
2017-Oct-13 21:15N 46°05' W 122°56'0 0.0
2017-Oct-13 21:00N 46°05' W 122°56'0 0.0
2017-Oct-13 20:27N 46°05' W 122°56'0 0.0
2017-Oct-13 20:00N 46°05' W 122°56'0 0.0
2017-Oct-13 19:30N 46°05' W 122°56'0 0.0
2017-Oct-13 19:01N 46°05' W 122°56'0 0.0
2017-Oct-13 18:21N 46°05' W 122°56'0 0.0
2017-Oct-13 18:00N 46°05' W 122°56'0 0.0
2017-Oct-13 17:14N 46°05' W 122°56'0 0.0
2017-Oct-13 17:01N 46°05' W 122°56'0 0.0
2017-Oct-13 16:30N 46°05' W 122°56'0 0.0
2017-Oct-13 16:00N 46°05' W 122°56'0 0.0
2017-Oct-13 15:30N 46°05' W 122°56'0 0.0
2017-Oct-13 15:00N 46°05' W 122°56'0 0.0
2017-Oct-13 14:30N 46°05' W 122°56'0 0.0
2017-Oct-13 13:51N 46°05' W 122°56'0 0.0
2017-Oct-13 13:30N 46°05' W 122°56'0 0.0
2017-Oct-13 12:50N 46°05' W 122°56'0 0.0
2017-Oct-13 12:30N 46°05' W 122°56'0 0.0
2017-Oct-13 11:56N 46°05' W 122°56'0 0.0
2017-Oct-13 11:30N 46°05' W 122°56'0 0.0
2017-Oct-13 11:00N 46°05' W 122°56'0 0.0
2017-Oct-13 10:30N 46°05' W 122°56'0 0.0
2017-Oct-13 09:59N 46°05' W 122°56'0 0.0
2017-Oct-13 09:15N 46°05' W 122°56'0 0.0
2017-Oct-13 09:00N 46°05' W 122°56'0 0.0
2017-Oct-13 08:30N 46°05' W 122°56'0 0.0
2017-Oct-13 07:52N 46°05' W 122°56'0 0.0
2017-Oct-13 07:30N 46°05' W 122°56'0 0.0
2017-Oct-13 07:00N 46°05' W 122°56'0 0.0
2017-Oct-13 06:30N 46°05' W 122°56'0 0.0
2017-Oct-13 05:55N 46°05' W 122°56'0 0.0
2017-Oct-13 05:30N 46°05' W 122°56'0 0.0
2017-Oct-13 05:00N 46°05' W 122°56'0 0.0
2017-Oct-13 04:30N 46°05' W 122°56'0 0.0
2017-Oct-13 04:00N 46°05' W 122°56'0 0.0
2017-Oct-13 03:30N 46°05' W 122°56'0 0.0
2017-Oct-13 03:00N 46°05' W 122°56'0 0.0
2017-Oct-13 02:21N 46°05' W 122°56'0 0.0
2017-Oct-13 02:00N 46°05' W 122°56'0 0.0
2017-Oct-13 01:30N 46°05' W 122°56'0 0.0
2017-Oct-13 01:00N 46°05' W 122°56'0 0.0
2017-Oct-13 00:30N 46°05' W 122°56'0 0.0
2017-Oct-13 00:00N 46°05' W 122°56'0 0.0
2017-Oct-12 23:30N 46°05' W 122°56'0 0.0
2017-Oct-12 23:00N 46°05' W 122°56'0 0.0
2017-Oct-12 22:30N 46°05' W 122°56'0 0.0
2017-Oct-12 22:00N 46°05' W 122°56'0 0.0
2017-Oct-12 21:30N 46°05' W 122°56'0 0.0
2017-Oct-12 21:00N 46°05' W 122°56'0 0.0
2017-Oct-12 20:30N 46°05' W 122°56'0 0.0
2017-Oct-12 20:00N 46°05' W 122°56'0 0.0
2017-Oct-12 19:30N 46°05' W 122°56'0 0.0
2017-Oct-12 19:00N 46°05' W 122°56'0 0.0
2017-Oct-12 18:30N 46°05' W 122°56'0 0.0
2017-Oct-12 18:00N 46°05' W 122°56'0 0.0
2017-Oct-12 17:30N 46°05' W 122°56'0 0.0
2017-Oct-12 16:56N 46°05' W 122°56'0 0.0
2017-Oct-12 16:30N 46°05' W 122°56'0 0.0
2017-Oct-12 16:00N 46°05' W 122°56'0 0.0
2017-Oct-12 15:30N 46°05' W 122°56'0 0.0
2017-Oct-12 15:00N 46°05' W 122°56'0 0.0
2017-Oct-12 14:30N 46°05' W 122°56'0 0.0
2017-Oct-12 13:52N 46°05' W 122°56'0 0.0
2017-Oct-12 13:30N 46°05' W 122°56'0 0.0
2017-Oct-12 12:55N 46°05' W 122°56'0 0.0
2017-Oct-12 12:30N 46°05' W 122°56'0 0.0
2017-Oct-12 11:53N 46°05' W 122°56'0 0.0
2017-Oct-12 11:30N 46°05' W 122°56'0 0.0
2017-Oct-12 10:57N 46°05' W 122°56'0 0.0
2017-Oct-12 10:30N 46°05' W 122°56'0 0.0
2017-Oct-12 09:51N 46°05' W 122°56'0 0.0
2017-Oct-12 09:30N 46°05' W 122°56'0 0.0
2017-Oct-12 08:56N 46°05' W 122°56'0 0.0
2017-Oct-12 08:30N 46°05' W 122°56'0 0.0
2017-Oct-12 07:43N 46°05' W 122°56'0 0.0
2017-Oct-12 07:30N 46°05' W 122°56'0 0.0
2017-Oct-12 07:00N 46°05' W 122°56'0 0.0
2017-Oct-12 06:30N 46°05' W 122°56'0 0.0
2017-Oct-12 06:00N 46°05' W 122°56'0 0.0
2017-Oct-12 05:26N 46°05' W 122°56'0 0.0
2017-Oct-12 05:00N 46°05' W 122°56'0 0.0
2017-Oct-12 04:30N 46°05' W 122°56'0 0.0
2017-Oct-12 04:00N 46°05' W 122°56'0 0.0
2017-Oct-12 03:30N 46°05' W 122°56'0 0.0
2017-Oct-12 03:00N 46°05' W 122°56'0 0.0
2017-Oct-12 02:30N 46°05' W 122°56'0 0.0
2017-Oct-12 02:00N 46°05' W 122°56'0 0.0
2017-Oct-12 01:30N 46°05' W 122°56'0 0.0
2017-Oct-12 01:00N 46°05' W 122°56'0 0.0
2017-Oct-12 00:08N 46°05' W 122°56'0 0.0
2017-Oct-11 23:50N 46°05' W 122°56'0 0.0
2017-Oct-11 23:30N 46°05' W 122°56'0 0.0
2017-Oct-11 23:00N 46°05' W 122°56'0 0.0
2017-Oct-11 22:18N 46°05' W 122°56'0 0.0
2017-Oct-11 21:57N 46°05' W 122°56'0 0.0
2017-Oct-11 21:30N 46°05' W 122°56'0 0.0
2017-Oct-11 21:00N 46°05' W 122°56'0 0.0
2017-Oct-11 20:30N 46°05' W 122°56'0 0.0
2017-Oct-11 20:00N 46°05' W 122°56'0 0.0
2017-Oct-11 19:30N 46°05' W 122°56'0 0.0
2017-Oct-11 19:00N 46°05' W 122°56'0 0.0
2017-Oct-11 18:30N 46°05' W 122°56'0 0.0
2017-Oct-11 18:00N 46°05' W 122°56'0 0.0
2017-Oct-11 17:30N 46°05' W 122°56'0 0.0
2017-Oct-11 17:00N 46°05' W 122°56'4 0.2
2017-Oct-11 00:00N 46°03' W 122°53'1 2.0
2017-Oct-10 23:30N 46°03' W 122°53'3 5.4
2017-Oct-10 23:00N 46°05' W 122°56'0 0.0
2017-Oct-10 22:30N 46°05' W 122°56'0 0.0
2017-Oct-10 22:00N 46°05' W 122°56'0 0.0
2017-Oct-10 21:30N 46°05' W 122°56'0 0.0
2017-Oct-10 21:00N 46°05' W 122°56'0 0.0
2017-Oct-10 20:30N 46°05' W 122°56'0 0.0
2017-Oct-10 20:01N 46°05' W 122°56'0 0.0
2017-Oct-10 19:30N 46°05' W 122°56'0 0.0
2017-Oct-10 19:00N 46°05' W 122°56'0 0.0
2017-Oct-10 18:30N 46°05' W 122°56'0 0.0
2017-Oct-10 18:00N 46°05' W 122°56'0 0.0
2017-Oct-10 17:30N 46°05' W 122°56'0 0.0
2017-Oct-10 17:00N 46°05' W 122°56'0 0.0
2017-Oct-10 16:30N 46°05' W 122°56'0 0.0
2017-Oct-10 16:00N 46°05' W 122°56'0 0.0
2017-Oct-10 15:26N 46°05' W 122°56'0 0.0
2017-Oct-10 15:00N 46°05' W 122°56'0 0.0
2017-Oct-10 14:00N 46°05' W 122°56'0 0.0
2017-Oct-10 13:30N 46°05' W 122°56'0 0.0
2017-Oct-10 13:00N 46°05' W 122°56'0 0.0
2017-Oct-10 12:15N 46°05' W 122°56'0 0.0
2017-Oct-10 12:00N 46°05' W 122°56'0 0.0
2017-Oct-10 11:30N 46°05' W 122°56'0 0.0
2017-Oct-10 11:00N 46°05' W 122°56'0 0.0
2017-Oct-10 10:30N 46°05' W 122°56'0 0.0
2017-Oct-10 10:00N 46°05' W 122°56'0 0.0
2017-Oct-10 09:17N 46°05' W 122°56'0 0.0
2017-Oct-10 08:51N 46°05' W 122°56'0 0.0
2017-Oct-10 08:30N 46°05' W 122°56'0 0.0
2017-Oct-10 08:00N 46°05' W 122°56'0 0.0
2017-Oct-10 07:31N 46°05' W 122°56'0 0.0
2017-Oct-10 07:00N 46°05' W 122°56'0 0.0
2017-Oct-10 06:30N 46°05' W 122°56'0 0.0
2017-Oct-10 05:56N 46°05' W 122°56'0 0.0
2017-Oct-10 05:31N 46°05' W 122°56'0 0.0
2017-Oct-10 05:00N 46°05' W 122°56'0 0.0
2017-Oct-10 04:30N 46°05' W 122°56'0 0.0
2017-Oct-10 03:51N 46°05' W 122°56'0 0.0
2017-Oct-10 03:30N 46°05' W 122°56'0 0.0
2017-Oct-10 02:56N 46°05' W 122°56'0 0.0
2017-Oct-10 02:28N 46°05' W 122°56'0 0.0
2017-Oct-10 02:00N 46°05' W 122°56'0 0.0
2017-Oct-10 01:11N 46°05' W 122°56'0 0.0
2017-Oct-10 01:00N 46°05' W 122°56'0 0.0
2017-Oct-10 00:30N 46°05' W 122°56'0 0.0
2017-Oct-10 00:00N 46°05' W 122°56'0 0.0
2017-Oct-09 23:30N 46°05' W 122°56'0 0.0
2017-Oct-09 23:00N 46°05' W 122°56'0 0.0
2017-Oct-09 22:30N 46°05' W 122°56'0 0.0
2017-Oct-09 22:00N 46°05' W 122°56'0 0.0
2017-Oct-09 21:30N 46°05' W 122°56'0 0.0
2017-Oct-09 21:00N 46°05' W 122°56'0 0.0
2017-Oct-09 20:30N 46°05' W 122°56'0 0.0
2017-Oct-09 20:00N 46°05' W 122°56'0 0.0
2017-Oct-09 19:30N 46°05' W 122°56'0 0.0
2017-Oct-09 19:00N 46°05' W 122°56'0 0.0
2017-Oct-09 18:30N 46°05' W 122°56'0 0.0
2017-Oct-09 18:00N 46°05' W 122°56'0 0.0
2017-Oct-09 17:30N 46°05' W 122°56'0 0.0
2017-Oct-09 17:00N 46°05' W 122°56'0 0.0
2017-Oct-09 16:30N 46°05' W 122°56'0 0.0
2017-Oct-09 16:00N 46°05' W 122°56'0 0.0
2017-Oct-09 15:30N 46°05' W 122°56'0 0.0
2017-Oct-09 15:00N 46°05' W 122°56'0 0.0
2017-Oct-09 14:30N 46°05' W 122°56'0 0.0
2017-Oct-09 14:00N 46°05' W 122°56'0 0.0
2017-Oct-09 13:30N 46°05' W 122°56'0 0.0
2017-Oct-09 13:00N 46°05' W 122°56'0 0.0
2017-Oct-09 12:30N 46°05' W 122°56'0 0.0
2017-Oct-09 12:00N 46°05' W 122°56'0 0.0
2017-Oct-09 11:30N 46°05' W 122°56'0 0.0
2017-Oct-09 10:59N 46°05' W 122°56'0 0.0
2017-Oct-09 10:13N 46°05' W 122°56'0 0.0
2017-Oct-09 10:00N 46°05' W 122°56'0 0.0
2017-Oct-09 09:30N 46°05' W 122°56'0 0.0
2017-Oct-09 09:00N 46°05' W 122°56'1 1.2
2017-Oct-09 08:30N 46°06' W 122°57'1 1.9
2017-Oct-09 08:00N 46°06' W 122°58'2 3.1
2017-Oct-09 07:30N 46°05' W 122°56'0 0.0
2017-Oct-09 07:00N 46°05' W 122°56'0 0.0
2017-Oct-09 06:30N 46°05' W 122°56'0 0.0
2017-Oct-09 06:00N 46°05' W 122°56'0 0.0
2017-Oct-09 05:30N 46°05' W 122°56'0 0.0
2017-Oct-09 05:00N 46°05' W 122°56'0 0.0
2017-Oct-09 04:30N 46°05' W 122°56'0 0.0
2017-Oct-09 04:00N 46°05' W 122°56'0 0.0
2017-Oct-09 03:30N 46°05' W 122°56'0 0.0
2017-Oct-09 03:00N 46°05' W 122°56'0 0.0
2017-Oct-09 02:30N 46°05' W 122°56'0 0.0
2017-Oct-09 02:00N 46°05' W 122°56'0 0.0
2017-Oct-09 01:30N 46°05' W 122°56'0 0.0
2017-Oct-09 00:49N 46°05' W 122°56'0 0.0
2017-Oct-09 00:30N 46°05' W 122°56'0 0.0
2017-Oct-09 00:00N 46°05' W 122°56'0 0.0
2017-Oct-08 23:30N 46°05' W 122°56'  

Dump ship's entire track history